createdAt,value
2017-12-19T00:02:17.597Z,102414.14
2017-12-19T00:04:45.905Z,102413.62
2017-12-19T00:07:14.193Z,102408.92
2017-12-19T00:09:42.464Z,102409.33
2017-12-19T00:12:10.757Z,102408.69
2017-12-19T00:14:39.052Z,102413.44
2017-12-19T00:17:07.398Z,102421.22
2017-12-19T00:19:35.669Z,102427.14
2017-12-19T00:22:03.998Z,102417.69
2017-12-19T00:24:32.354Z,102424.08
2017-12-19T00:27:00.644Z,102425.43
2017-12-19T00:29:28.910Z,102421.71
2017-12-19T00:31:57.224Z,102419.30
2017-12-19T00:34:25.506Z,102417.80
2017-12-19T00:36:53.823Z,102418.16
2017-12-19T00:39:22.105Z,102412.64
2017-12-19T00:41:50.398Z,102409.33
2017-12-19T00:44:18.688Z,102407.22
2017-12-19T00:46:47.113Z,102424.19
2017-12-19T00:49:15.382Z,102422.84
2017-12-19T00:51:43.685Z,102424.31
2017-12-19T00:54:12.068Z,102436.69
2017-12-19T00:56:40.367Z,102433.49
2017-12-19T00:59:08.650Z,102440.30
2017-12-19T01:01:37.129Z,102444.70
2017-12-19T01:04:05.402Z,102444.63
2017-12-19T01:06:33.700Z,102441.58
2017-12-19T01:09:01.958Z,102452.61
2017-12-19T01:11:30.258Z,102451.89
2017-12-19T01:13:58.661Z,102454.38
2017-12-19T01:16:27.102Z,102457.58
2017-12-19T01:18:55.397Z,102465.25
2017-12-19T01:21:23.696Z,102462.92
2017-12-19T01:23:51.965Z,102464.84
2017-12-19T01:26:20.248Z,102468.19
2017-12-19T01:28:48.526Z,102469.58
2017-12-19T01:31:16.825Z,102464.17
2017-12-19T01:33:45.120Z,102463.26
2017-12-19T01:36:13.407Z,102463.16
2017-12-19T01:38:41.670Z,102464.65
2017-12-19T01:41:09.947Z,102468.72
2017-12-19T01:43:38.235Z,102464.84
2017-12-19T01:46:06.524Z,102475.49
2017-12-19T01:48:34.864Z,102472.38
2017-12-19T01:51:03.900Z,102466.65
2017-12-19T01:53:32.148Z,102469.02
2017-12-19T01:56:00.614Z,102470.98
2017-12-19T01:58:28.894Z,102454.80
2017-12-19T02:00:57.204Z,102450.20
2017-12-19T02:03:25.485Z,102448.40
2017-12-19T02:05:53.764Z,102454.13
2017-12-19T02:08:22.004Z,102455.59
2017-12-19T02:10:50.264Z,102459.50
2017-12-19T02:13:18.521Z,102466.46
2017-12-19T02:15:46.824Z,102462.73
2017-12-19T02:18:15.261Z,102463.34
2017-12-19T02:20:43.525Z,102463.23
2017-12-19T02:23:11.766Z,102461.16
2017-12-19T02:25:40.374Z,102446.67
2017-12-19T02:28:08.621Z,102445.95
2017-12-19T02:30:40.537Z,102449.45
2017-12-19T02:33:08.873Z,102442.50
2017-12-19T02:35:37.221Z,102448.89
2017-12-19T02:38:05.502Z,102453.22
2017-12-19T02:40:33.769Z,102451.72
2017-12-19T02:43:10.971Z,102454.42
2017-12-19T02:45:39.273Z,102453.82
2017-12-19T02:48:07.584Z,102438.23
2017-12-19T02:50:36.009Z,102447.02
2017-12-19T02:53:04.288Z,102449.17
2017-12-19T02:55:32.938Z,102439.31
2017-12-19T02:58:01.169Z,102435.80
2017-12-19T03:00:29.538Z,102429.41
2017-12-19T03:02:57.993Z,102425.19
2017-12-19T03:05:26.341Z,102433.39
2017-12-19T03:07:54.605Z,102450.56
2017-12-19T03:10:22.961Z,102459.38
2017-12-19T03:12:51.561Z,102467.92
2017-12-19T03:15:19.888Z,102467.36
2017-12-19T03:17:48.426Z,102465.36
2017-12-19T03:20:16.857Z,102464.43
2017-12-19T03:22:45.138Z,102464.42
2017-12-19T03:25:13.741Z,102473.34
2017-12-19T03:27:42.426Z,102476.28
2017-12-19T03:30:10.977Z,102469.84
2017-12-19T03:32:39.412Z,102465.40
2017-12-19T03:35:14.013Z,102457.49
2017-12-19T03:37:42.297Z,102451.09
2017-12-19T03:40:10.581Z,102447.74
2017-12-19T03:42:39.020Z,102455.80
2017-12-19T03:45:07.374Z,102463.86
2017-12-19T03:47:35.778Z,102468.11
2017-12-19T03:50:04.100Z,102466.95
2017-12-19T03:52:32.569Z,102475.64
2017-12-19T03:55:00.800Z,102469.77
2017-12-19T03:57:29.121Z,102478.54
2017-12-19T03:59:57.385Z,102488.36
2017-12-19T04:02:26.985Z,102482.68
2017-12-19T04:04:55.297Z,102470.98
2017-12-19T04:07:23.619Z,102460.55
2017-12-19T04:09:51.901Z,102463.11
2017-12-19T04:12:20.278Z,102456.33
2017-12-19T04:14:48.540Z,102454.83
2017-12-19T04:17:16.845Z,102465.89
2017-12-19T04:19:45.180Z,102463.53
2017-12-19T04:22:13.521Z,102466.72
2017-12-19T04:24:41.806Z,102477.70
2017-12-19T04:27:10.137Z,102479.97
2017-12-19T04:29:38.468Z,102470.94
2017-12-19T04:32:06.789Z,102466.01
2017-12-19T04:34:35.041Z,102463.64
2017-12-19T04:37:03.394Z,102462.25
2017-12-19T04:39:31.704Z,102465.07
2017-12-19T04:42:00.007Z,102466.42
2017-12-19T04:44:28.257Z,102455.28
2017-12-19T04:46:56.597Z,102459.35
2017-12-19T04:49:24.897Z,102453.67
2017-12-19T04:51:54.142Z,102456.00
2017-12-19T04:54:24.262Z,102460.64
2017-12-19T04:56:52.614Z,102465.41
2017-12-19T04:59:21.270Z,102464.88
2017-12-19T05:04:47.932Z,102472.97
2017-12-19T05:07:17.796Z,102477.70
2017-12-19T05:09:49.622Z,102488.02
2017-12-19T05:12:18.592Z,102475.91
2017-12-19T05:14:47.472Z,102467.52
2017-12-19T05:17:16.376Z,102466.58
2017-12-19T05:19:45.465Z,102462.51
2017-12-19T05:22:14.365Z,102453.90
2017-12-19T05:24:43.220Z,102457.31
2017-12-19T05:27:11.963Z,102458.03
2017-12-19T05:29:40.669Z,102458.56
2017-12-19T05:32:09.730Z,102450.92
2017-12-19T05:34:38.686Z,102455.10
2017-12-19T05:37:12.040Z,102460.67
2017-12-19T05:39:50.165Z,102461.16
2017-12-19T05:42:19.880Z,102470.03
2017-12-19T05:44:48.486Z,102467.36
2017-12-19T05:47:17.391Z,102470.71
2017-12-19T05:49:46.164Z,102471.19
2017-12-19T05:52:14.866Z,102476.77
2017-12-19T05:54:43.742Z,102478.49
2017-12-19T05:57:12.544Z,102486.02
2017-12-19T05:59:41.419Z,102481.58
2017-12-19T06:02:10.119Z,102477.55
2017-12-19T06:04:38.996Z,102473.98
2017-12-19T06:07:07.709Z,102464.23
2017-12-19T06:09:36.400Z,102468.72
2017-12-19T06:12:05.456Z,102466.84
2017-12-19T06:14:34.339Z,102469.69
2017-12-19T06:17:02.956Z,102468.49
2017-12-19T06:19:31.536Z,102474.25
2017-12-19T06:22:00.428Z,102468.60
2017-12-19T06:24:29.088Z,102465.82
2017-12-19T06:26:57.699Z,102477.93
2017-12-19T06:29:26.564Z,102476.66
2017-12-19T06:31:55.148Z,102453.70
2017-12-19T06:34:23.755Z,102450.97
2017-12-19T06:36:52.687Z,102465.52
2017-12-19T06:39:21.504Z,102475.45
2017-12-19T06:41:50.223Z,102483.32
2017-12-19T06:44:19.108Z,102495.80
2017-12-19T06:46:48.088Z,102502.46
2017-12-19T06:49:16.883Z,102500.62
2017-12-19T06:51:45.634Z,102499.68
2017-12-19T06:54:14.208Z,102498.55
2017-12-19T06:56:42.800Z,102498.13
2017-12-19T06:59:11.749Z,102506.19
2017-12-19T07:01:40.424Z,102512.88
2017-12-19T07:04:09.057Z,102523.75
2017-12-19T07:06:37.594Z,102517.58
2017-12-19T07:09:06.420Z,102523.34
2017-12-19T07:11:36.588Z,102532.04
2017-12-19T07:14:05.176Z,102538.09
2017-12-19T07:16:33.936Z,102547.05
2017-12-19T07:19:02.732Z,102545.73
2017-12-19T07:21:31.455Z,102530.00
2017-12-19T07:24:00.375Z,102527.63
2017-12-19T07:26:29.073Z,102528.64
2017-12-19T07:28:57.864Z,102509.64
2017-12-19T07:31:26.636Z,102493.73
2017-12-19T07:33:55.464Z,102501.52
2017-12-19T07:36:24.199Z,102517.66
2017-12-19T07:38:52.901Z,102526.50
2017-12-19T07:41:21.544Z,102537.10
2017-12-19T07:43:50.420Z,102543.91
2017-12-19T07:46:18.989Z,102533.82
2017-12-19T07:48:47.996Z,102534.42
2017-12-19T07:51:16.952Z,102530.61
2017-12-19T07:53:45.640Z,102524.91
2017-12-19T07:56:14.328Z,102519.70
2017-12-19T07:58:42.844Z,102516.80
2017-12-19T08:01:11.636Z,102517.05
2017-12-19T08:03:40.531Z,102515.84
2017-12-19T08:06:09.292Z,102527.84
2017-12-19T08:08:37.909Z,102522.27
2017-12-19T08:11:06.796Z,102515.99
2017-12-19T08:13:35.460Z,102521.52
2017-12-19T08:16:04.044Z,102529.18
2017-12-19T08:18:32.811Z,102530.52
2017-12-19T08:21:01.398Z,102528.71
2017-12-19T08:23:30.129Z,102534.31
2017-12-19T08:25:58.784Z,102546.33
2017-12-19T08:28:27.356Z,102536.98
2017-12-19T08:30:55.904Z,102538.16
2017-12-19T08:33:24.420Z,102531.51
2017-12-19T08:35:53.245Z,102531.69
2017-12-19T08:38:21.923Z,102535.53
2017-12-19T08:40:50.668Z,102545.23
2017-12-19T08:43:19.300Z,102544.02
2017-12-19T08:45:48.040Z,102539.95
2017-12-19T08:48:16.798Z,102530.42
2017-12-19T08:50:45.749Z,102535.63
2017-12-19T08:53:14.965Z,102537.50
2017-12-19T08:55:43.480Z,102545.76
2017-12-19T08:58:12.016Z,102547.00
2017-12-19T09:00:40.552Z,102538.98
2017-12-19T09:03:09.386Z,102534.98
2017-12-19T09:05:38.140Z,102531.23
2017-12-19T09:08:06.959Z,102540.43
2017-12-19T09:10:35.476Z,102541.61
2017-12-19T09:13:04.052Z,102560.43
2017-12-19T09:15:32.764Z,102560.16
2017-12-19T09:18:01.407Z,102563.66
2017-12-19T09:20:30.297Z,102569.92
2017-12-19T09:22:58.940Z,102578.53
2017-12-19T09:25:27.582Z,102581.93
2017-12-19T09:27:56.128Z,102568.06
2017-12-19T09:30:24.833Z,102557.64
2017-12-19T09:32:53.500Z,102564.36
2017-12-19T09:35:22.214Z,102574.66
2017-12-19T09:37:50.887Z,102556.17
2017-12-19T09:40:19.447Z,102564.09
2017-12-19T09:42:47.940Z,102561.61
2017-12-19T09:45:16.597Z,102566.34
2017-12-19T09:47:45.228Z,102550.84
2017-12-19T09:50:14.124Z,102560.18
2017-12-19T09:52:42.842Z,102558.02
2017-12-19T09:55:11.388Z,102545.22
2017-12-19T09:57:39.968Z,102544.37
2017-12-19T10:00:08.556Z,102545.55
2017-12-19T10:02:37.135Z,102548.30
2017-12-19T10:05:05.844Z,102541.97
2017-12-19T10:07:34.520Z,102552.53
2017-12-19T10:10:03.200Z,102558.21
2017-12-19T10:12:31.947Z,102549.92
2017-12-19T10:15:00.735Z,102541.02
2017-12-19T10:17:29.523Z,102541.23
2017-12-19T10:19:58.310Z,102550.66
2017-12-19T10:22:26.941Z,102542.67
2017-12-19T10:24:55.675Z,102539.72
2017-12-19T10:27:24.411Z,102543.55
2017-12-19T10:29:53.304Z,102549.35
2017-12-19T10:32:22.074Z,102556.13
2017-12-19T10:34:50.688Z,102556.66
2017-12-19T10:37:19.425Z,102569.33
2017-12-19T10:39:48.192Z,102567.94
2017-12-19T10:42:16.916Z,102566.93
2017-12-19T10:44:45.616Z,102562.19
2017-12-19T10:47:14.362Z,102560.80
2017-12-19T10:49:43.168Z,102561.66
2017-12-19T10:52:11.928Z,102557.75
2017-12-19T10:54:40.532Z,102552.81
2017-12-19T10:57:09.335Z,102544.43
2017-12-19T10:59:37.976Z,102543.19
2017-12-19T11:02:06.631Z,102551.30
2017-12-19T11:04:35.572Z,102545.41
2017-12-19T11:07:05.080Z,102536.08
2017-12-19T11:09:33.721Z,102534.92
2017-12-19T11:12:02.424Z,102540.88
2017-12-19T11:14:31.020Z,102537.06
2017-12-19T11:16:59.583Z,102531.40
2017-12-19T11:19:28.212Z,102521.66
2017-12-19T11:21:57.104Z,102520.50
2017-12-19T11:24:26.062Z,102515.95
2017-12-19T11:26:55.090Z,102508.39
2017-12-19T11:29:23.812Z,102500.80
2017-12-19T11:31:53.128Z,102494.25
2017-12-19T11:34:22.048Z,102505.42
2017-12-19T11:36:50.804Z,102507.53
2017-12-19T11:39:19.433Z,102513.36
2017-12-19T11:41:48.104Z,102515.04
2017-12-19T11:44:16.783Z,102514.23
2017-12-19T11:46:45.492Z,102503.77
2017-12-19T11:49:14.292Z,102479.86
2017-12-19T11:51:43.203Z,102489.19
2017-12-19T11:54:11.901Z,102499.94
2017-12-19T11:56:40.639Z,102481.20
2017-12-19T11:59:09.465Z,102487.18
2017-12-19T12:01:38.199Z,102494.05
2017-12-19T12:04:07.035Z,102495.66
2017-12-19T12:06:35.767Z,102501.10
2017-12-19T12:09:05.021Z,102498.98
2017-12-19T12:11:33.714Z,102491.67
2017-12-19T12:14:02.371Z,102485.02
2017-12-19T12:16:31.048Z,102461.63
2017-12-19T12:18:59.764Z,102459.59
2017-12-19T12:21:29.552Z,102455.72
2017-12-19T12:23:58.164Z,102465.04
2017-12-19T12:26:27.053Z,102473.08
2017-12-19T12:28:55.737Z,102471.78
2017-12-19T12:31:24.545Z,102473.59
2017-12-19T12:33:53.128Z,102484.09
2017-12-19T12:36:21.760Z,102476.78
2017-12-19T12:38:50.901Z,102470.05
2017-12-19T12:41:19.573Z,102466.91
2017-12-19T12:43:48.276Z,102451.66
2017-12-19T12:46:17.030Z,102455.41
2017-12-19T12:48:45.805Z,102462.80
2017-12-19T12:51:14.379Z,102465.58
2017-12-19T12:53:43.013Z,102468.23
2017-12-19T12:56:11.880Z,102473.61
2017-12-19T12:58:43.500Z,102476.85
2017-12-19T13:01:12.189Z,102487.00
2017-12-19T13:03:41.084Z,102491.97
2017-12-19T13:06:10.130Z,102483.77
2017-12-19T13:08:38.816Z,102476.94
2017-12-19T13:11:07.679Z,102478.56
2017-12-19T13:13:36.639Z,102473.82
2017-12-19T13:16:05.619Z,102484.09
2017-12-19T13:18:34.107Z,102494.39
2017-12-19T13:21:02.680Z,102496.19
2017-12-19T13:23:31.302Z,102494.92
2017-12-19T13:25:59.845Z,102491.16
2017-12-19T13:28:28.460Z,102468.90
2017-12-19T13:30:57.011Z,102465.70
2017-12-19T13:33:25.703Z,102486.66
2017-12-19T13:35:54.402Z,102479.14
2017-12-19T13:38:23.025Z,102498.34
2017-12-19T13:40:51.912Z,102496.80
2017-12-19T13:43:20.620Z,102475.08
2017-12-19T13:45:49.484Z,102483.01
2017-12-19T13:48:18.120Z,102480.64
2017-12-19T13:50:46.704Z,102496.20
2017-12-19T13:53:15.500Z,102490.49
2017-12-19T13:55:44.608Z,102492.68
2017-12-19T13:58:13.320Z,102504.64
2017-12-19T14:00:41.824Z,102496.29
2017-12-19T14:03:10.483Z,102500.87
2017-12-19T14:05:39.233Z,102498.98
2017-12-19T14:08:08.042Z,102497.45
2017-12-19T14:10:36.808Z,102501.85
2017-12-19T14:13:05.423Z,102506.70
2017-12-19T14:15:34.113Z,102511.56
2017-12-19T14:18:02.598Z,102513.63
2017-12-19T14:20:31.485Z,102514.22
2017-12-19T14:23:00.237Z,102518.52
2017-12-19T14:25:28.916Z,102517.66
2017-12-19T14:27:57.732Z,102534.80
2017-12-19T14:30:26.252Z,102527.42
2017-12-19T14:32:55.076Z,102525.05
2017-12-19T14:35:23.655Z,102526.45
2017-12-19T14:37:52.651Z,102524.08
2017-12-19T14:40:21.165Z,102531.30
2017-12-19T14:42:50.034Z,102521.41
2017-12-19T14:45:18.800Z,102526.64
2017-12-19T14:47:47.607Z,102533.60
2017-12-19T14:50:16.332Z,102537.92
2017-12-19T14:52:45.052Z,102537.92
2017-12-19T14:55:13.900Z,102535.11
2017-12-19T14:57:42.769Z,102540.83
2017-12-19T15:00:11.556Z,102522.73
2017-12-19T15:02:40.203Z,102531.50
2017-12-19T15:05:08.984Z,102535.52
2017-12-19T15:07:37.789Z,102538.45
2017-12-19T15:10:06.477Z,102539.44
2017-12-19T15:12:35.307Z,102541.35
2017-12-19T15:15:06.809Z,102541.44
2017-12-19T15:17:35.948Z,102542.41
2017-12-19T15:20:04.556Z,102547.53
2017-12-19T15:22:33.316Z,102543.24
2017-12-19T15:25:01.980Z,102551.48
2017-12-19T15:27:30.764Z,102555.20
2017-12-19T15:29:59.378Z,102548.51
2017-12-19T15:32:28.358Z,102553.09
2017-12-19T15:34:57.156Z,102555.31
2017-12-19T15:37:25.929Z,102545.58
2017-12-19T15:39:54.552Z,102551.70
2017-12-19T15:42:23.256Z,102556.30
2017-12-19T15:44:51.900Z,102555.20
2017-12-19T15:47:21.004Z,102559.61
2017-12-19T15:49:49.927Z,102560.73
2017-12-19T15:52:18.992Z,102558.22
2017-12-19T15:54:47.864Z,102565.55
2017-12-19T15:57:16.776Z,102562.63
2017-12-19T15:59:45.444Z,102559.98
2017-12-19T16:02:14.352Z,102563.03
2017-12-19T16:04:43.330Z,102567.06
2017-12-19T16:07:12.135Z,102565.82
2017-12-19T16:09:40.804Z,102578.05
2017-12-19T16:12:09.344Z,102570.55
2017-12-19T16:14:38.148Z,102573.19
2017-12-19T16:17:06.741Z,102567.62
2017-12-19T16:19:35.564Z,102569.70
2017-12-19T16:22:04.460Z,102568.30
2017-12-19T16:24:33.308Z,102571.23
2017-12-19T16:27:02.040Z,102571.95
2017-12-19T16:29:30.696Z,102576.23
2017-12-19T16:31:59.253Z,102579.59
2017-12-19T16:34:27.904Z,102580.41
2017-12-19T16:36:56.648Z,102585.61
2017-12-19T16:39:25.228Z,102589.83
2017-12-19T16:41:54.000Z,102588.99
2017-12-19T16:44:22.808Z,102590.56
2017-12-19T16:46:51.362Z,102587.45
2017-12-19T16:49:20.006Z,102591.96
2017-12-19T16:51:48.889Z,102593.50
2017-12-19T16:54:17.557Z,102584.67
2017-12-19T16:56:46.118Z,102579.25
2017-12-19T16:59:14.725Z,102581.63
2017-12-19T17:01:43.488Z,102585.31
2017-12-19T17:04:12.000Z,102592.31
2017-12-19T17:06:42.491Z,102589.73
2017-12-19T17:09:11.045Z,102590.80
2017-12-19T17:11:39.696Z,102590.09
2017-12-19T17:14:08.288Z,102591.03
2017-12-19T17:16:37.025Z,102588.19
2017-12-19T17:19:05.667Z,102586.59
2017-12-19T17:21:34.413Z,102584.17
2017-12-19T17:24:03.024Z,102571.80
2017-12-19T17:26:32.049Z,102576.04
2017-12-19T17:29:04.742Z,102587.11
2017-12-19T17:31:34.283Z,102581.39
2017-12-19T17:34:03.052Z,102576.23
2017-12-19T17:36:31.637Z,102582.60
2017-12-19T17:39:00.248Z,102592.72
2017-12-19T17:41:29.157Z,102593.28
2017-12-19T17:43:57.848Z,102592.31
2017-12-19T17:46:26.551Z,102584.64
2017-12-19T17:48:55.216Z,102587.98
2017-12-19T17:51:24.101Z,102588.09
2017-12-19T17:53:52.788Z,102581.33
2017-12-19T17:56:21.680Z,102585.61
2017-12-19T17:58:50.390Z,102590.77
2017-12-19T18:01:19.112Z,102585.61
2017-12-19T18:03:54.562Z,102582.53
2017-12-19T18:06:23.404Z,102577.31
2017-12-19T18:08:52.466Z,102590.67
2017-12-19T18:11:21.241Z,102593.40
2017-12-19T18:13:50.025Z,102589.53
2017-12-19T18:16:18.600Z,102586.03
2017-12-19T18:18:47.313Z,102586.80
2017-12-19T18:21:16.112Z,102594.16
2017-12-19T18:23:44.764Z,102593.23
2017-12-19T18:26:14.462Z,102594.89
2017-12-19T18:28:44.255Z,102589.73
2017-12-19T18:31:13.115Z,102588.98
2017-12-19T18:33:41.764Z,102589.59
2017-12-19T18:36:12.607Z,102590.56
2017-12-19T18:38:46.262Z,102591.39
2017-12-19T18:41:15.792Z,102593.38
2017-12-19T18:43:44.519Z,102587.78
2017-12-19T18:46:13.422Z,102587.78
2017-12-19T18:48:42.109Z,102586.69
2017-12-19T18:51:10.984Z,102596.40
2017-12-19T18:53:39.852Z,102588.31
2017-12-19T18:56:08.603Z,102599.27
2017-12-19T18:58:37.428Z,102594.59
2017-12-19T19:01:06.177Z,102595.42
2017-12-19T19:03:35.212Z,102596.97
2017-12-19T19:06:03.948Z,102590.09
2017-12-19T19:08:32.610Z,102597.53
2017-12-19T19:11:01.423Z,102591.89
2017-12-19T19:13:30.222Z,102592.27
2017-12-19T19:15:58.965Z,102595.92
2017-12-19T19:18:27.554Z,102598.81
2017-12-19T19:20:56.479Z,102605.36
2017-12-19T19:23:25.205Z,102607.84
2017-12-19T19:25:53.818Z,102605.63
2017-12-19T19:28:22.772Z,102595.47
2017-12-19T19:30:51.562Z,102594.49
2017-12-19T19:33:20.264Z,102592.38
2017-12-19T19:35:49.072Z,102601.30
2017-12-19T19:38:17.764Z,102606.72
2017-12-19T19:40:46.403Z,102603.76
2017-12-19T19:43:14.977Z,102611.20
2017-12-19T19:45:43.592Z,102616.10
2017-12-19T19:48:12.381Z,102612.11
2017-12-19T19:50:40.952Z,102620.72
2017-12-19T19:53:09.658Z,102622.03
2017-12-19T19:55:38.723Z,102622.27
2017-12-19T19:58:07.554Z,102622.68
2017-12-19T20:00:36.312Z,102631.86
2017-12-19T20:03:04.993Z,102628.22
2017-12-19T20:05:33.852Z,102631.73
2017-12-19T20:08:02.691Z,102634.98
2017-12-19T20:10:31.200Z,102628.27
2017-12-19T20:12:59.997Z,102639.20
2017-12-19T20:15:28.774Z,102639.09
2017-12-19T20:18:00.640Z,102642.91
2017-12-19T20:20:33.405Z,102652.00
2017-12-19T20:23:02.165Z,102657.36
2017-12-19T20:25:30.716Z,102660.45
2017-12-19T20:27:59.524Z,102666.73
2017-12-19T20:30:28.220Z,102667.78
2017-12-19T20:32:57.083Z,102664.02
2017-12-19T20:35:26.204Z,102658.72
2017-12-19T20:37:54.941Z,102661.17
2017-12-19T20:40:23.680Z,102661.00
2017-12-19T20:42:52.365Z,102664.39
2017-12-19T20:45:21.029Z,102665.12
2017-12-19T20:47:49.652Z,102656.92
2017-12-19T20:50:18.544Z,102655.77
2017-12-19T20:52:47.241Z,102669.87
2017-12-19T20:55:16.124Z,102671.70
2017-12-19T20:57:45.040Z,102671.44
2017-12-19T21:00:13.962Z,102672.37
2017-12-19T21:02:42.994Z,102667.72
2017-12-19T21:05:11.509Z,102667.51
2017-12-19T21:07:40.332Z,102670.87
2017-12-19T21:10:09.202Z,102671.92
2017-12-19T21:12:39.636Z,102673.47
2017-12-19T21:15:08.648Z,102685.52
2017-12-19T21:17:37.724Z,102683.03
2017-12-19T21:20:06.452Z,102682.55
2017-12-19T21:22:35.089Z,102674.73
2017-12-19T21:25:03.900Z,102676.97
2017-12-19T21:27:32.688Z,102681.34
2017-12-19T21:30:01.825Z,102677.77
2017-12-19T21:32:34.800Z,102676.87
2017-12-19T21:35:04.034Z,102680.64
2017-12-19T21:37:32.848Z,102692.93
2017-12-19T21:40:02.355Z,102694.22
2017-12-19T21:42:32.423Z,102687.55
2017-12-19T21:45:03.642Z,102688.04
2017-12-19T21:47:32.492Z,102691.36
2017-12-19T21:50:01.404Z,102683.19
2017-12-19T21:52:30.306Z,102673.69
2017-12-19T21:54:59.088Z,102678.63
2017-12-19T21:57:28.080Z,102684.28
2017-12-19T21:59:56.856Z,102677.37
2017-12-19T22:02:25.688Z,102666.27
2017-12-19T22:04:55.979Z,102669.31
2017-12-19T22:07:27.548Z,102669.05
2017-12-19T22:09:56.211Z,102659.56
2017-12-19T22:12:26.938Z,102662.31
2017-12-19T22:14:55.464Z,102655.08
2017-12-19T22:17:24.436Z,102663.97
2017-12-19T22:19:53.470Z,102661.30
2017-12-19T22:22:22.447Z,102658.73
2017-12-19T22:24:51.757Z,102659.16
2017-12-19T22:27:20.649Z,102662.17
2017-12-19T22:29:49.553Z,102664.70
2017-12-19T22:32:18.305Z,102670.87
2017-12-19T22:34:46.888Z,102674.16
2017-12-19T22:37:16.166Z,102671.75
2017-12-19T22:39:44.905Z,102674.01
2017-12-19T22:42:13.644Z,102681.80
2017-12-19T22:44:43.820Z,102693.46
2017-12-19T22:47:13.695Z,102688.11
2017-12-19T22:49:42.339Z,102697.45
2017-12-19T22:52:10.980Z,102693.94
2017-12-19T22:54:39.579Z,102692.08
2017-12-19T22:57:08.516Z,102699.41
2017-12-19T22:59:36.989Z,102693.94
2017-12-19T23:02:05.712Z,102696.41
2017-12-19T23:04:35.362Z,102700.47
2017-12-19T23:07:04.155Z,102697.10
2017-12-19T23:09:34.587Z,102701.20
2017-12-19T23:12:04.646Z,102703.33
2017-12-19T23:14:33.332Z,102709.31
2017-12-19T23:17:02.052Z,102707.16
2017-12-19T23:19:30.888Z,102711.28
2017-12-19T23:21:59.429Z,102712.44
2017-12-19T23:24:28.097Z,102715.99
2017-12-19T23:26:56.832Z,102712.32
2017-12-19T23:29:25.861Z,102716.17
2017-12-19T23:31:54.370Z,102714.81
2017-12-19T23:34:27.003Z,102709.56
2017-12-19T23:36:56.319Z,102705.45
2017-12-19T23:39:25.328Z,102710.75
2017-12-19T23:41:54.218Z,102718.13
2017-12-19T23:44:22.880Z,102711.69
2017-12-19T23:46:51.416Z,102713.06
2017-12-19T23:49:20.080Z,102713.20
2017-12-19T23:51:48.809Z,102713.35
2017-12-19T23:54:17.612Z,102711.06
2017-12-19T23:56:46.360Z,102716.48
2017-12-19T23:59:15.184Z,102714.38
